Adams Cove, New York
Current Conditions -  °F | °C
As of 10:19 AM on Thursday 18 Dec 2014 (Local Time) from KART Reporting Station
Overcast Overcast  
Wind Chill: 24°   Ceiling: 1400
Heat Index: 32°   Visibility: 10mi
Dew Point: 24°   Wind: 10mph
Humidity: 73%   Direction: 300°WNW
Pressure: 30.01"   Gusts: NA
Location:  44.0116°N, 76.0789°W
Report Text: KART 181519Z AUTO 30009KT 10SM OVC014 00/M04 A3001 RMK AO2 T00001044
Loading
Personal Weather Stations






























Interactive Weather Map New forecast layout! Learn more

10-Day Weather Forecast

Advertisements
Track Severe Weather on mobile